Time;durP1;ratioP1;P1;durP2;ratioP2;P2;SDS_P1;SDS_P2;PMS_P1;PMS_P2;Temp;Humidity;BMP_temperature;BMP_pressure;BME280_temperature;BME280_humidity;BME280_pressure;Samples;Min_cycle;Max_cycle;Signal;HPM_P1;HPM_P2
2023/01/20 00:02:36;;;;;;;14.25;4.30;;;;;;;;;;10464420;28;20012;-71
2023/01/20 00:07:36;;;;;;;11.07;3.53;;;;;;;;;;10465332;28;20437;-76
2023/01/20 00:12:36;;;;;;;12.27;2.72;;;;;;;;;;10465030;28;20478;-72
2023/01/20 00:17:37;;;;;;;3.40;2.20;;;;;;;;;;10464545;28;20422;-72
2023/01/20 00:22:41;;;;;;;12.60;3.42;;;;;;;;;;10432848;28;20436;-72
2023/01/20 00:27:41;;;;;;;11.07;2.67;;;;;;;;;;10461342;28;20047;-76
2023/01/20 00:32:43;;;;;;;3.85;2.33;;;;;;;;;;10463874;28;20135;-75
2023/01/20 00:37:43;;;;;;;2.33;0.95;;;;;;;;;;10464122;28;20033;-75
2023/01/20 00:42:44;;;;;;;4.38;0.50;;;;;;;;;;10464581;28;20025;-72
2023/01/20 00:47:44;;;;;;;0.95;0.45;;;;;;;;;;10472326;28;20041;-73
2023/01/20 00:52:44;;;;;;;0.52;0.30;;;;;;;;;;10472301;28;20108;-72
2023/01/20 00:57:46;;;;;;;0.35;0.25;;;;;;;;;;10472260;28;20028;-78
2023/01/20 01:02:46;;;;;;;1.90;0.15;;;;;;;;;;10470524;28;20017;-71
2023/01/20 01:07:46;;;;;;;0.38;0.22;;;;;;;;;;10461509;28;20032;-74
2023/01/20 01:12:46;;;;;;;1.25;0.20;;;;;;;;;;10471181;28;20387;-78
2023/01/20 01:17:47;;;;;;;0.68;0.30;;;;;;;;;;10465108;28;20039;-73
2023/01/20 01:22:47;;;;;;;0.20;0.15;;;;;;;;;;10429833;28;20032;-76
2023/01/20 01:27:47;;;;;;;1.52;0.70;;;;;;;;;;10463450;28;20024;-76
2023/01/20 01:32:47;;;;;;;4.68;0.70;;;;;;;;;;10470394;28;20052;-77
2023/01/20 01:37:48;;;;;;;1.33;0.63;;;;;;;;;;10486504;28;20112;-72
2023/01/20 01:42:48;;;;;;;2.08;0.68;;;;;;;;;;10487289;28;20017;-79
2023/01/20 01:48:00;;;;;;;0.33;0.33;;;;;;;;;;10487935;28;20024;-78
2023/01/20 01:53:01;;;;;;;0.30;0.28;;;;;;;;;;10452722;28;20076;-74
2023/01/20 01:58:01;;;;;;;0.40;0.23;;;;;;;;;;10468309;28;20020;-73
2023/01/20 02:03:02;;;;;;;0.77;0.28;;;;;;;;;;10468591;28;20020;-72
2023/01/20 02:08:03;;;;;;;0.60;0.38;;;;;;;;;;10469436;28;20020;-77
2023/01/20 02:13:04;;;;;;;2.08;0.20;;;;;;;;;;10469480;28;20026;-76
2023/01/20 02:18:04;;;;;;;2.75;0.30;;;;;;;;;;10451924;28;20455;-75
2023/01/20 02:23:37;;;;;;;1.23;0.50;;;;;;;;;;10468672;28;20465;-72
2023/01/20 02:28:50;;;;;;;1.08;0.40;;;;;;;;;;10413867;28;20032;-73
2023/01/20 02:33:50;;;;;;;0.90;0.63;;;;;;;;;;10460380;28;20700;-78
2023/01/20 02:39:02;;;;;;;2.88;0.32;;;;;;;;;;10449774;28;20023;-76
2023/01/20 02:44:10;;;;;;;0.93;0.32;;;;;;;;;;10451238;28;20122;-75
2023/01/20 02:49:10;;;;;;;4.13;0.30;;;;;;;;;;10467400;28;20032;-75
2023/01/20 02:54:12;;;;;;;0.38;0.38;;;;;;;;;;10468292;28;20270;-78
2023/01/20 02:59:15;;;;;;;0.30;0.30;;;;;;;;;;10467173;28;20108;-73
2023/01/20 03:04:18;;;;;;;1.48;0.32;;;;;;;;;;10478301;28;20020;-74
2023/01/20 03:09:20;;;;;;;0.63;0.40;;;;;;;;;;10466637;28;20017;-73
2023/01/20 03:14:21;;;;;;;0.65;0.25;;;;;;;;;;10466431;28;20024;-74
2023/01/20 03:19:21;;;;;;;2.23;0.30;;;;;;;;;;10465905;28;20490;-72
2023/01/20 03:24:22;;;;;;;1.27;1.02;;;;;;;;;;10483629;28;20447;-72
2023/01/20 03:29:22;;;;;;;1.63;0.40;;;;;;;;;;10465888;28;20032;-76
2023/01/20 03:34:40;;;;;;;3.17;0.40;;;;;;;;;;10445920;28;20056;-71
2023/01/20 03:39:40;;;;;;;0.88;0.57;;;;;;;;;;10483889;28;20178;-73
2023/01/20 03:44:43;;;;;;;0.95;0.43;;;;;;;;;;10465314;28;20065;-79
2023/01/20 03:50:04;;;;;;;1.67;0.88;;;;;;;;;;10465237;28;20024;-73
2023/01/20 03:55:24;;;;;;;2.05;0.80;;;;;;;;;;10435236;28;20179;-75
2023/01/20 04:00:26;;;;;;;3.42;0.55;;;;;;;;;;10464900;28;20053;-76
2023/01/20 04:05:27;;;;;;;0.77;0.60;;;;;;;;;;10484403;28;20466;-72
2023/01/20 04:10:29;;;;;;;1.10;0.68;;;;;;;;;;10448381;28;20028;-78
2023/01/20 04:15:48;;;;;;;0.73;0.68;;;;;;;;;;10480906;28;20028;-74
2023/01/20 04:21:00;;;;;;;1.33;0.65;;;;;;;;;;10471033;28;20259;-74
2023/01/20 04:26:01;;;;;;;2.97;0.88;;;;;;;;;;10473008;28;20024;-76
2023/01/20 04:31:01;;;;;;;1.77;0.88;;;;;;;;;;10472812;28;20490;-72
2023/01/20 04:36:01;;;;;;;2.88;0.85;;;;;;;;;;10495444;28;20463;-74
2023/01/20 04:41:01;;;;;;;4.20;1.65;;;;;;;;;;10470537;28;20063;-77
2023/01/20 04:46:02;;;;;;;5.57;1.45;;;;;;;;;;10471307;28;20554;-72
2023/01/20 04:51:03;;;;;;;2.35;1.40;;;;;;;;;;10486512;28;20032;-76
2023/01/20 04:56:08;;;;;;;1.80;1.25;;;;;;;;;;10488540;28;20025;-78
2023/01/20 05:01:09;;;;;;;1.88;1.50;;;;;;;;;;10469933;28;20028;-71
2023/01/20 05:06:09;;;;;;;3.83;2.60;;;;;;;;;;10467242;28;20486;-76
2023/01/20 05:11:10;;;;;;;3.45;2.05;;;;;;;;;;10467108;28;20466;-77
2023/01/20 05:16:10;;;;;;;4.00;1.95;;;;;;;;;;10469069;28;20036;-73
2023/01/20 05:21:10;;;;;;;4.47;1.80;;;;;;;;;;10472781;28;20028;-76
2023/01/20 05:26:11;;;;;;;5.55;3.30;;;;;;;;;;10471005;28;20023;-77
2023/01/20 05:31:11;;;;;;;8.82;4.47;;;;;;;;;;10463443;28;20036;-76
2023/01/20 05:36:11;;;;;;;11.23;4.70;;;;;;;;;;10483586;28;20036;-73
2023/01/20 05:41:11;;;;;;;10.57;5.30;;;;;;;;;;10445141;28;20044;-73
2023/01/20 05:46:12;;;;;;;15.45;6.70;;;;;;;;;;10434563;28;20116;-75
2023/01/20 05:51:12;;;;;;;9.80;5.10;;;;;;;;;;10499090;28;20082;-75
2023/01/20 05:56:14;;;;;;;15.75;6.10;;;;;;;;;;10498589;28;20050;-73
2023/01/20 06:01:15;;;;;;;18.88;6.07;;;;;;;;;;10492999;28;20035;-76
2023/01/20 06:06:17;;;;;;;11.73;4.97;;;;;;;;;;10467864;28;20536;-72
2023/01/20 06:11:17;;;;;;;10.18;5.30;;;;;;;;;;10469146;28;20082;-73
2023/01/20 06:16:18;;;;;;;12.60;5.07;;;;;;;;;;10468709;28;20024;-78
2023/01/20 06:21:18;;;;;;;9.68;5.82;;;;;;;;;;10467740;28;20051;-76
2023/01/20 06:26:18;;;;;;;8.40;5.65;;;;;;;;;;10467529;28;20074;-78
2023/01/20 06:31:18;;;;;;;10.93;6.17;;;;;;;;;;10467929;28;20056;-75
2023/01/20 06:36:19;;;;;;;10.25;4.32;;;;;;;;;;10467548;28;20029;-73
2023/01/20 06:41:19;;;;;;;13.53;7.40;;;;;;;;;;10467893;28;20448;-71
2023/01/20 06:46:21;;;;;;;7.82;4.97;;;;;;;;;;10467013;28;20025;-75
2023/01/20 06:51:21;;;;;;;9.18;4.10;;;;;;;;;;10466975;28;20068;-73
2023/01/20 06:56:22;;;;;;;4.15;1.80;;;;;;;;;;10484738;28;20107;-75
2023/01/20 07:01:27;;;;;;;2.95;1.95;;;;;;;;;;10466994;28;20028;-76
2023/01/20 07:06:29;;;;;;;7.35;2.65;;;;;;;;;;10484406;28;20085;-73
2023/01/20 07:11:30;;;;;;;10.23;3.30;;;;;;;;;;10466197;28;20027;-73
2023/01/20 07:16:30;;;;;;;10.93;4.53;;;;;;;;;;10484210;28;20029;-75
2023/01/20 07:21:30;;;;;;;11.70;5.27;;;;;;;;;;10465950;28;20074;-75
2023/01/20 07:26:31;;;;;;;7.93;4.65;;;;;;;;;;10466314;28;20035;-76
2023/01/20 07:31:33;;;;;;;15.10;7.50;;;;;;;;;;10465921;28;20075;-76
2023/01/20 07:36:33;;;;;;;14.48;7.20;;;;;;;;;;10483190;28;20074;-75
2023/01/20 07:41:33;;;;;;;25.08;7.63;;;;;;;;;;10465431;28;20479;-77
2023/01/20 07:46:33;;;;;;;10.88;6.57;;;;;;;;;;10465529;28;20036;-72
2023/01/20 07:51:34;;;;;;;14.38;6.85;;;;;;;;;;10464816;28;20032;-74
2023/01/20 07:56:34;;;;;;;12.95;5.85;;;;;;;;;;10454195;28;20029;-79
2023/01/20 08:01:34;;;;;;;9.93;5.50;;;;;;;;;;10423860;28;20403;-78
2023/01/20 08:06:34;;;;;;;12.63;3.93;;;;;;;;;;10464165;28;20572;-79
2023/01/20 08:11:35;;;;;;;4.85;2.80;;;;;;;;;;10464437;28;20024;-72
2023/01/20 08:16:35;;;;;;;5.68;2.92;;;;;;;;;;10464873;28;20106;-78
2023/01/20 08:21:35;;;;;;;4.55;3.58;;;;;;;;;;10456570;28;20403;-77
2023/01/20 08:26:35;;;;;;;10.40;4.32;;;;;;;;;;10423107;28;20032;-76
2023/01/20 08:31:36;;;;;;;7.57;4.63;;;;;;;;;;10468309;28;20044;-74
2023/01/20 08:36:38;;;;;;;10.27;5.95;;;;;;;;;;10464727;28;20481;-81
2023/01/20 08:41:38;;;;;;;17.88;9.57;;;;;;;;;;10464232;28;20044;-76
2023/01/20 08:46:39;;;;;;;16.70;8.38;;;;;;;;;;10465276;28;20674;-76
2023/01/20 08:51:39;;;;;;;12.37;5.87;;;;;;;;;;10448969;28;20095;-72
2023/01/20 08:56:39;;;;;;;9.73;5.83;;;;;;;;;;10464298;28;20031;-72
2023/01/20 09:01:41;;;;;;;11.10;7.00;;;;;;;;;;10466620;28;20819;-78
2023/01/20 09:06:43;;;;;;;10.52;3.55;;;;;;;;;;10484657;28;20052;-73
2023/01/20 09:11:49;;;;;;;4.03;2.33;;;;;;;;;;10474143;28;20368;-72
2023/01/20 09:16:50;;;;;;;3.47;1.60;;;;;;;;;;10472698;28;20024;-76
2023/01/20 09:21:51;;;;;;;2.00;1.10;;;;;;;;;;10472235;28;20639;-75
2023/01/20 09:26:52;;;;;;;4.90;1.17;;;;;;;;;;10489137;28;20058;-79
2023/01/20 09:31:56;;;;;;;2.53;1.27;;;;;;;;;;10488567;28;20047;-77
2023/01/20 09:43:52;;;;;;;1.13;0.75;;;;;;;;;;10470107;28;20110;-76
2023/01/20 09:47:45;;;;;;;1.75;0.93;;;;;;;;;;10488128;28;20566;-72
2023/01/20 09:53:04;;;;;;;1.95;1.20;;;;;;;;;;10469754;28;20027;-72
2023/01/20 09:58:05;;;;;;;1.23;1.00;;;;;;;;;;10457769;28;20470;-74
2023/01/20 10:03:28;;;;;;;3.53;1.20;;;;;;;;;;10446371;28;20025;-75
2023/01/20 10:08:36;;;;;;;2.05;0.77;;;;;;;;;;10416949;28;20119;-74
2023/01/20 10:13:50;;;;;;;2.47;1.10;;;;;;;;;;10456104;28;20029;-79
2023/01/20 10:19:00;;;;;;;5.28;0.90;;;;;;;;;;10467821;28;20031;-76
2023/01/20 10:24:07;;;;;;;4.00;1.23;;;;;;;;;;10468384;28;20029;-76
2023/01/20 10:29:16;;;;;;;1.67;0.73;;;;;;;;;;10485818;28;20035;-77
2023/01/20 10:34:18;;;;;;;2.00;0.85;;;;;;;;;;10468434;28;20363;-73
2023/01/20 10:39:22;;;;;;;1.88;0.50;;;;;;;;;;10451151;28;20536;-77
2023/01/20 10:44:22;;;;;;;4.07;1.60;;;;;;;;;;10468551;28;20027;-76
2023/01/20 10:49:35;;;;;;;3.73;1.27;;;;;;;;;;10447680;28;20025;-71
2023/01/20 10:54:50;;;;;;;2.55;1.27;;;;;;;;;;10427211;28;20033;-72
2023/01/20 10:59:59;;;;;;;9.60;3.67;;;;;;;;;;10426183;28;20105;-73
2023/01/20 11:05:01;;;;;;;4.80;1.63;;;;;;;;;;10461930;28;20104;-73
2023/01/20 11:10:17;;;;;;;4.00;1.30;;;;;;;;;;10468050;28;20039;-72
2023/01/20 11:15:19;;;;;;;3.40;1.10;;;;;;;;;;10466437;28;20020;-76
2023/01/20 11:20:20;;;;;;;4.93;2.05;;;;;;;;;;10442155;28;20039;-76
2023/01/20 11:25:25;;;;;;;2.70;1.52;;;;;;;;;;10441215;28;20070;-77
2023/01/20 11:30:27;;;;;;;3.20;1.77;;;;;;;;;;10466567;28;20514;-78
2023/01/20 11:35:27;;;;;;;4.85;2.13;;;;;;;;;;10484265;28;20052;-77
2023/01/20 11:40:28;;;;;;;2.50;1.90;;;;;;;;;;10466259;28;20032;-77
2023/01/20 11:45:31;;;;;;;8.40;3.50;;;;;;;;;;10466791;28;20044;-75
2023/01/20 11:50:36;;;;;;;3.80;2.55;;;;;;;;;;10466746;28;20035;-74
2023/01/20 11:55:45;;;;;;;5.47;2.55;;;;;;;;;;10465807;28;20371;-75
2023/01/20 12:00:46;;;;;;;7.78;3.67;;;;;;;;;;10465065;28;20020;-71
2023/01/20 12:05:50;;;;;;;9.52;3.95;;;;;;;;;;10484327;28;20017;-75
2023/01/20 12:10:51;;;;;;;12.55;4.88;;;;;;;;;;10483442;28;20126;-73
2023/01/20 12:15:53;;;;;;;3.97;1.70;;;;;;;;;;10482682;28;20471;-74
2023/01/20 12:21:18;;;;;;;2.92;1.40;;;;;;;;;;10465625;28;20025;-73
2023/01/20 12:26:20;;;;;;;4.80;1.80;;;;;;;;;;10464412;28;20059;-75
2023/01/20 12:31:22;;;;;;;9.10;1.70;;;;;;;;;;10464662;28;20045;-73
2023/01/20 12:36:29;;;;;;;2.20;1.25;;;;;;;;;;10465227;28;20028;-74
2023/01/20 12:41:33;;;;;;;13.82;5.85;;;;;;;;;;10474617;28;20104;-73
2023/01/20 12:46:39;;;;;;;10.65;4.68;;;;;;;;;;10494074;28;20395;-74
2023/01/20 12:51:40;;;;;;;7.10;1.50;;;;;;;;;;10472548;28;20402;-72
2023/01/20 12:56:59;;;;;;;1.60;0.80;;;;;;;;;;10472054;28;20024;-73
2023/01/20 13:02:07;;;;;;;1.48;0.90;;;;;;;;;;10472214;28;20127;-75
2023/01/20 13:07:19;;;;;;;2.67;1.38;;;;;;;;;;10452715;28;20028;-76
2023/01/20 13:12:32;;;;;;;3.15;1.23;;;;;;;;;;10466127;28;20094;-75
2023/01/20 13:17:48;;;;;;;1.23;0.57;;;;;;;;;;10477640;28;20030;-77
2023/01/20 13:22:49;;;;;;;1.23;0.85;;;;;;;;;;10485483;28;20029;-77
2023/01/20 13:27:50;;;;;;;11.70;6.57;;;;;;;;;;10476704;28;20032;-73
2023/01/20 13:33:00;;;;;;;1.20;0.85;;;;;;;;;;10465894;28;20600;-72
2023/01/20 13:38:01;;;;;;;2.75;1.70;;;;;;;;;;10468922;28;20411;-75
2023/01/20 13:43:02;;;;;;;4.60;1.42;;;;;;;;;;10468261;28;20024;-73
2023/01/20 13:48:05;;;;;;;2.28;1.70;;;;;;;;;;10469451;28;20021;-76
2023/01/20 13:53:09;;;;;;;3.65;1.80;;;;;;;;;;10467276;28;20047;-74
2023/01/20 13:58:19;;;;;;;1.20;1.10;;;;;;;;;;10463221;28;20025;-77
2023/01/20 14:03:33;;;;;;;2.20;1.10;;;;;;;;;;10468416;28;20031;-78
2023/01/20 14:08:41;;;;;;;1.70;1.17;;;;;;;;;;10461903;28;20021;-73
2023/01/20 14:13:42;;;;;;;3.38;1.83;;;;;;;;;;10454083;28;20117;-76
2023/01/20 14:18:42;;;;;;;3.22;2.00;;;;;;;;;;10483949;28;20051;-72
2023/01/20 14:23:44;;;;;;;3.67;1.53;;;;;;;;;;10450874;28;20024;-76
2023/01/20 14:28:46;;;;;;;2.25;1.50;;;;;;;;;;10487488;28;20441;-73
2023/01/20 14:33:49;;;;;;;3.53;1.60;;;;;;;;;;10449732;28;20063;-74
2023/01/20 14:39:00;;;;;;;2.60;1.63;;;;;;;;;;10484338;28;20025;-75
2023/01/20 14:44:01;;;;;;;4.65;2.20;;;;;;;;;;10466503;28;20534;-76
2023/01/20 14:49:02;;;;;;;4.43;2.33;;;;;;;;;;10467285;28;20030;-76
2023/01/20 14:54:23;;;;;;;4.05;2.33;;;;;;;;;;10465352;28;20053;-75
2023/01/20 14:59:23;;;;;;;14.95;6.15;;;;;;;;;;10448597;28;20040;-79
2023/01/20 15:04:24;;;;;;;3.55;2.28;;;;;;;;;;10476352;28;20021;-80
2023/01/20 15:09:25;;;;;;;2.80;2.30;;;;;;;;;;10471937;28;20031;-78
2023/01/20 15:14:29;;;;;;;6.53;3.83;;;;;;;;;;10483303;28;20367;-80
2023/01/20 15:19:31;;;;;;;5.63;2.80;;;;;;;;;;10468217;28;20051;-73
2023/01/20 15:24:33;;;;;;;6.05;3.47;;;;;;;;;;10482010;28;20425;-71
2023/01/20 15:29:34;;;;;;;7.03;3.40;;;;;;;;;;10462092;28;20035;-74
2023/01/20 15:34:34;;;;;;;6.55;3.70;;;;;;;;;;10482445;28;20492;-73
2023/01/20 15:39:34;;;;;;;3.90;2.95;;;;;;;;;;10465685;28;20017;-74
2023/01/20 15:44:35;;;;;;;5.93;4.05;;;;;;;;;;10464053;28;20086;-73
2023/01/20 15:49:35;;;;;;;7.50;4.30;;;;;;;;;;10462326;28;20620;-77
2023/01/20 15:54:35;;;;;;;7.80;5.20;;;;;;;;;;10488498;28;20625;-73
2023/01/20 15:59:35;;;;;;;7.55;5.35;;;;;;;;;;10473687;28;20515;-76
2023/01/20 16:04:36;;;;;;;6.38;5.13;;;;;;;;;;10478501;23;20521;-73
2023/01/20 16:09:37;;;;;;;10.73;6.78;;;;;;;;;;10443949;28;20033;-73
2023/01/20 16:14:38;;;;;;;9.30;5.38;;;;;;;;;;10468402;28;20028;-75
2023/01/20 16:19:38;;;;;;;8.43;5.38;;;;;;;;;;10473005;28;20057;-78
2023/01/20 16:24:39;;;;;;;8.93;5.78;;;;;;;;;;10464781;28;20508;-72
2023/01/20 16:29:39;;;;;;;8.70;5.65;;;;;;;;;;10423459;28;20021;-76
2023/01/20 16:34:40;;;;;;;9.25;5.30;;;;;;;;;;10412990;28;20051;-78
2023/01/20 16:39:40;;;;;;;9.10;5.67;;;;;;;;;;10418720;28;20130;-78
2023/01/20 16:44:40;;;;;;;9.30;6.13;;;;;;;;;;10421241;28;20111;-76
2023/01/20 16:49:41;;;;;;;11.40;6.43;;;;;;;;;;10439421;28;20029;-77
2023/01/20 16:54:42;;;;;;;13.30;7.82;;;;;;;;;;10421287;28;20025;-75
2023/01/20 16:59:42;;;;;;;11.63;7.10;;;;;;;;;;10414256;28;20144;-78
2023/01/20 17:04:42;;;;;;;12.03;6.43;;;;;;;;;;10405105;28;20042;-75
2023/01/20 17:09:42;;;;;;;9.57;6.27;;;;;;;;;;10391817;28;20036;-77
2023/01/20 17:14:43;;;;;;;9.88;6.13;;;;;;;;;;10420892;28;20043;-75
2023/01/20 17:19:43;;;;;;;12.75;7.45;;;;;;;;;;10410899;28;20481;-76
2023/01/20 17:24:43;;;;;;;14.67;8.10;;;;;;;;;;10429729;28;20043;-74
2023/01/20 17:29:44;;;;;;;17.35;9.23;;;;;;;;;;10439455;28;20033;-75
2023/01/20 17:34:46;;;;;;;14.30;7.93;;;;;;;;;;10440973;28;20474;-73
2023/01/20 17:39:46;;;;;;;15.75;8.93;;;;;;;;;;10431399;28;20029;-77
2023/01/20 17:44:46;;;;;;;16.80;10.63;;;;;;;;;;10413813;28;20233;-74
2023/01/20 17:49:47;;;;;;;13.43;8.65;;;;;;;;;;10429413;28;20400;-78
2023/01/20 17:54:47;;;;;;;14.43;8.75;;;;;;;;;;10409585;28;20557;-75
2023/01/20 17:59:48;;;;;;;13.45;8.55;;;;;;;;;;10423912;28;20025;-76
2023/01/20 18:04:48;;;;;;;15.98;9.23;;;;;;;;;;10431661;28;20049;-76
2023/01/20 18:09:48;;;;;;;12.93;8.45;;;;;;;;;;10429387;28;20129;-75
2023/01/20 18:14:49;;;;;;;15.68;9.70;;;;;;;;;;10421794;28;20032;-71
2023/01/20 18:19:49;;;;;;;13.57;7.95;;;;;;;;;;10422686;28;20025;-72
2023/01/20 18:24:50;;;;;;;11.13;7.05;;;;;;;;;;10424615;28;20032;-79
2023/01/20 18:29:50;;;;;;;13.65;8.15;;;;;;;;;;10421693;28;20029;-71
2023/01/20 18:34:50;;;;;;;14.75;9.52;;;;;;;;;;10420405;28;20344;-71
2023/01/20 18:39:50;;;;;;;15.77;9.15;;;;;;;;;;10419662;28;20098;-73
2023/01/20 18:44:51;;;;;;;13.60;8.23;;;;;;;;;;10438108;28;20020;-79
2023/01/20 18:49:51;;;;;;;14.20;8.20;;;;;;;;;;10441954;28;20029;-76
2023/01/20 18:54:51;;;;;;;16.42;9.00;;;;;;;;;;10424375;28;20025;-75
2023/01/20 18:59:52;;;;;;;19.20;10.48;;;;;;;;;;10439339;28;20525;-73
2023/01/20 19:04:52;;;;;;;15.35;8.90;;;;;;;;;;10423629;28;20048;-75
2023/01/20 19:09:52;;;;;;;19.93;9.47;;;;;;;;;;10422916;28;20052;-71
2023/01/20 19:14:53;;;;;;;15.88;9.48;;;;;;;;;;10423250;28;20785;-76
2023/01/20 19:19:53;;;;;;;14.93;9.40;;;;;;;;;;10424885;28;20112;-76
2023/01/20 19:24:54;;;;;;;18.00;9.20;;;;;;;;;;10424483;28;20013;-74
2023/01/20 19:29:54;;;;;;;16.23;8.60;;;;;;;;;;10404472;28;20028;-76
2023/01/20 19:34:55;;;;;;;17.70;9.82;;;;;;;;;;10437307;28;20053;-78
2023/01/20 19:39:55;;;;;;;14.60;9.10;;;;;;;;;;10405356;28;20071;-78
2023/01/20 19:44:56;;;;;;;14.60;9.93;;;;;;;;;;10421766;28;20116;-76
2023/01/20 19:49:56;;;;;;;15.70;9.07;;;;;;;;;;10422352;28;20025;-77
2023/01/20 19:54:56;;;;;;;16.45;9.70;;;;;;;;;;10425027;28;20031;-77
2023/01/20 19:59:56;;;;;;;14.32;9.05;;;;;;;;;;10423383;28;20032;-76
2023/01/20 20:04:57;;;;;;;15.48;10.10;;;;;;;;;;10424019;28;20534;-78
2023/01/20 20:09:57;;;;;;;18.57;9.57;;;;;;;;;;10413452;28;20036;-78
2023/01/20 20:14:58;;;;;;;15.23;9.07;;;;;;;;;;10415700;28;20029;-73
2023/01/20 20:19:58;;;;;;;15.88;9.32;;;;;;;;;;10421037;28;21213;-72
2023/01/20 20:24:58;;;;;;;16.52;10.15;;;;;;;;;;10439076;28;20103;-76
2023/01/20 20:30:00;;;;;;;17.23;9.20;;;;;;;;;;10421721;28;20082;-75
2023/01/20 20:35:00;;;;;;;17.92;10.43;;;;;;;;;;10439360;28;20059;-75
2023/01/20 20:40:00;;;;;;;16.13;9.70;;;;;;;;;;10422558;28;20090;-77
2023/01/20 20:45:00;;;;;;;15.88;9.38;;;;;;;;;;10422449;28;20033;-78
2023/01/20 20:50:01;;;;;;;17.45;9.40;;;;;;;;;;10419513;28;20085;-74
2023/01/20 20:55:01;;;;;;;17.10;8.95;;;;;;;;;;10420523;28;20087;-78
2023/01/20 21:00:02;;;;;;;25.35;11.45;;;;;;;;;;10440455;28;20040;-77
2023/01/20 21:05:03;;;;;;;22.83;10.55;;;;;;;;;;10430658;28;20203;-75
2023/01/20 21:10:03;;;;;;;19.87;11.03;;;;;;;;;;10451252;28;20151;-75
2023/01/20 21:15:04;;;;;;;19.73;11.38;;;;;;;;;;10446525;28;20272;-78
2023/01/20 21:20:05;;;;;;;20.02;10.98;;;;;;;;;;10430816;28;20143;-73
2023/01/20 21:25:06;;;;;;;25.98;12.63;;;;;;;;;;10427448;28;20017;-73
2023/01/20 21:30:07;;;;;;;25.77;12.55;;;;;;;;;;10429155;28;20487;-72
2023/01/20 21:35:08;;;;;;;23.05;12.10;;;;;;;;;;10426435;28;20033;-77
2023/01/20 21:40:08;;;;;;;23.85;12.50;;;;;;;;;;10427533;28;20060;-75
2023/01/20 21:45:09;;;;;;;25.33;12.85;;;;;;;;;;10426740;28;20108;-76
2023/01/20 21:55:28;;;;;;;26.05;11.85;;;;;;;;;;10439828;28;20037;-72
2023/01/20 22:00:28;;;;;;;26.63;12.02;;;;;;;;;;10439237;28;20109;-77
2023/01/20 22:05:29;;;;;;;27.55;13.00;;;;;;;;;;10446731;28;20140;-73
2023/01/20 22:10:31;;;;;;;27.98;12.57;;;;;;;;;;10453044;28;20023;-78
2023/01/20 22:15:32;;;;;;;23.45;13.10;;;;;;;;;;10420844;28;20479;-77
2023/01/20 22:20:33;;;;;;;27.98;15.00;;;;;;;;;;10417255;28;20033;-79
2023/01/20 22:25:34;;;;;;;33.53;14.48;;;;;;;;;;10424118;28;20467;-78
2023/01/20 22:30:34;;;;;;;27.88;13.52;;;;;;;;;;10430681;28;20112;-79
2023/01/20 22:35:34;;;;;;;29.03;13.50;;;;;;;;;;10424686;28;20024;-81
2023/01/20 22:40:35;;;;;;;28.55;13.52;;;;;;;;;;10438921;28;20033;-75
2023/01/20 22:45:35;;;;;;;26.45;12.10;;;;;;;;;;10420232;28;20072;-72
2023/01/20 22:50:35;;;;;;;24.00;12.43;;;;;;;;;;10398646;28;20033;-80
2023/01/20 22:55:35;;;;;;;29.08;14.30;;;;;;;;;;10427803;28;20382;-79
2023/01/20 23:00:36;;;;;;;29.67;14.00;;;;;;;;;;10426829;28;20075;-78
2023/01/20 23:05:36;;;;;;;29.45;15.48;;;;;;;;;;10425033;28;20145;-80
2023/01/20 23:10:45;;;;;;;31.67;14.93;;;;;;;;;;10426400;28;20021;-73
2023/01/20 23:15:46;;;;;;;27.40;13.45;;;;;;;;;;10427202;28;20017;-80
2023/01/20 23:20:55;;;;;;;24.88;12.55;;;;;;;;;;10427107;28;20044;-76
2023/01/20 23:25:59;;;;;;;30.20;14.65;;;;;;;;;;10444451;28;20021;-78
2023/01/20 23:31:04;;;;;;;23.02;13.57;;;;;;;;;;10427285;28;20021;-78
2023/01/20 23:36:07;;;;;;;24.45;13.30;;;;;;;;;;10428705;28;20021;-75
2023/01/20 23:41:08;;;;;;;23.20;12.15;;;;;;;;;;10437043;28;20026;-76
2023/01/20 23:46:09;;;;;;;24.92;12.90;;;;;;;;;;10423307;28;20025;-76
2023/01/20 23:51:09;;;;;;;26.00;14.10;;;;;;;;;;10425640;28;20113;-78
2023/01/20 23:56:11;;;;;;;27.88;13.10;;;;;;;;;;10425135;28;20017;-73
